createdAt,value
2023-05-05T00:01:33.391Z,99.90
2023-05-05T00:04:00.605Z,99.90
2023-05-05T00:06:31.605Z,99.90
2023-05-05T00:08:58.635Z,99.90
2023-05-05T00:11:26.209Z,99.90
2023-05-05T00:13:53.133Z,99.90
2023-05-05T00:16:20.421Z,99.90
2023-05-05T00:18:48.219Z,99.90
2023-05-05T00:21:16.102Z,99.90
2023-05-05T00:23:43.072Z,99.90
2023-05-05T00:26:10.094Z,99.90
2023-05-05T00:28:37.150Z,99.90
2023-05-05T00:31:04.177Z,99.90
2023-05-05T00:33:31.336Z,99.90
2023-05-05T00:35:58.339Z,99.90
2023-05-05T00:38:25.464Z,99.90
2023-05-05T00:40:52.499Z,99.90
2023-05-05T00:43:19.440Z,99.90
2023-05-05T00:45:48.236Z,99.90
2023-05-05T00:48:17.162Z,99.90
2023-05-05T00:50:45.166Z,99.90
2023-05-05T00:53:12.667Z,99.90
2023-05-05T00:55:39.608Z,99.90
2023-05-05T00:58:06.651Z,99.90
2023-05-05T01:00:34.359Z,99.90
2023-05-05T01:03:01.580Z,99.90
2023-05-05T01:05:53.219Z,99.90
2023-05-05T01:08:41.294Z,99.90
2023-05-05T01:11:17.317Z,99.90
2023-05-05T01:13:54.439Z,99.90
2023-05-05T01:16:29.465Z,99.90
2023-05-05T01:19:23.972Z,99.90
2023-05-05T01:21:57.231Z,99.90
2023-05-05T01:24:42.238Z,99.90
2023-05-05T01:27:30.071Z,99.90
2023-05-05T01:30:37.041Z,99.90
2023-05-05T01:33:08.855Z,99.90
2023-05-05T01:35:47.340Z,99.90
2023-05-05T01:38:19.442Z,99.90
2023-05-05T01:40:52.791Z,99.90
2023-05-05T01:43:23.030Z,99.90
2023-05-05T01:45:51.351Z,99.90
2023-05-05T01:48:20.109Z,99.90
2023-05-05T01:50:48.451Z,99.90
2023-05-05T01:53:17.694Z,99.90
2023-05-05T01:55:47.038Z,99.90
2023-05-05T01:58:16.103Z,99.90
2023-05-05T02:00:44.182Z,99.90
2023-05-05T02:03:14.072Z,99.90
2023-05-05T02:05:43.616Z,99.90
2023-05-05T02:08:11.594Z,99.90
2023-05-05T02:10:43.083Z,99.90
2023-05-05T02:13:13.344Z,99.90
2023-05-05T02:15:42.296Z,99.90
2023-05-05T02:18:10.085Z,99.90
2023-05-05T02:20:39.928Z,99.90
2023-05-05T02:23:08.100Z,99.90
2023-05-05T02:25:44.186Z,99.90
2023-05-05T02:28:20.258Z,99.90
2023-05-05T02:30:52.824Z,99.90
2023-05-05T02:33:22.975Z,99.90
2023-05-05T02:35:52.326Z,99.90
2023-05-05T02:38:23.935Z,99.90
2023-05-05T02:40:52.584Z,99.90
2023-05-05T02:43:22.728Z,99.90
2023-05-05T02:45:49.851Z,99.90
2023-05-05T02:48:16.902Z,99.90
2023-05-05T02:50:43.894Z,99.90
2023-05-05T02:53:11.201Z,99.90
2023-05-05T02:56:00.485Z,99.90
2023-05-05T02:58:37.208Z,99.90
2023-05-05T03:01:25.776Z,99.90
2023-05-05T03:04:04.921Z,99.90
2023-05-05T03:06:35.702Z,99.90
2023-05-05T03:09:09.822Z,99.90
2023-05-05T03:11:47.701Z,99.90
2023-05-05T03:14:18.602Z,99.90
2023-05-05T03:16:47.198Z,99.90
2023-05-05T03:19:17.139Z,99.90
2023-05-05T03:21:45.388Z,99.90
2023-05-05T03:24:21.399Z,99.90
2023-05-05T03:26:49.949Z,99.90
2023-05-05T03:29:17.338Z,99.90
2023-05-05T03:31:44.309Z,99.90
2023-05-05T03:34:11.436Z,99.90
2023-05-05T03:36:39.293Z,99.90
2023-05-05T03:39:06.261Z,99.90
2023-05-05T03:41:33.407Z,99.90
2023-05-05T03:44:00.469Z,99.90
2023-05-05T03:46:27.580Z,99.90
2023-05-05T03:48:57.350Z,99.90
2023-05-05T03:51:25.455Z,99.90
2023-05-05T03:53:52.470Z,99.90
2023-05-05T03:56:19.475Z,99.90
2023-05-05T03:58:46.461Z,99.90
2023-05-05T04:01:13.523Z,99.90
2023-05-05T04:03:40.609Z,99.90
2023-05-05T04:06:07.650Z,99.90
2023-05-05T04:08:34.647Z,99.90
2023-05-05T04:11:02.665Z,99.90
2023-05-05T04:13:29.753Z,99.90
2023-05-05T04:15:56.950Z,99.90
2023-05-05T04:18:23.953Z,99.90
2023-05-05T04:20:51.068Z,99.90
2023-05-05T04:23:18.082Z,99.90
2023-05-05T04:25:45.040Z,99.90
2023-05-05T04:28:12.117Z,99.90
2023-05-05T04:30:39.310Z,99.90
2023-05-05T04:33:06.396Z,99.90
2023-05-05T04:35:33.534Z,99.90
2023-05-05T04:38:01.235Z,99.90
2023-05-05T04:40:28.314Z,99.90
2023-05-05T04:42:55.397Z,99.90
2023-05-05T04:45:22.364Z,99.90
2023-05-05T04:47:49.406Z,99.90
2023-05-05T04:50:16.752Z,99.90
2023-05-05T04:52:43.736Z,99.90
2023-05-05T04:55:11.938Z,99.90
2023-05-05T04:57:39.269Z,99.90
2023-05-05T05:00:08.457Z,99.90
2023-05-05T05:02:37.774Z,99.90
2023-05-05T05:05:05.318Z,99.90
2023-05-05T05:07:32.276Z,99.90
2023-05-05T05:09:59.418Z,99.90
2023-05-05T05:12:26.460Z,99.90
2023-05-05T05:14:53.381Z,99.90
2023-05-05T05:17:22.612Z,99.90
2023-05-05T05:19:49.638Z,99.90
2023-05-05T05:22:16.872Z,99.90
2023-05-05T05:24:43.864Z,99.90
2023-05-05T05:27:11.568Z,99.90
2023-05-05T05:29:38.723Z,99.90
2023-05-05T05:32:06.189Z,99.90
2023-05-05T05:34:33.208Z,99.90
2023-05-05T05:37:00.171Z,99.90
2023-05-05T05:39:27.219Z,99.90
2023-05-05T05:41:54.213Z,99.90
2023-05-05T05:44:21.258Z,99.90
2023-05-05T05:46:48.203Z,99.90
2023-05-05T05:49:16.465Z,99.90
2023-05-05T05:51:43.462Z,99.90
2023-05-05T05:54:10.386Z,99.90
2023-05-05T05:56:37.435Z,99.90
2023-05-05T05:59:08.387Z,99.90
2023-05-05T06:01:35.670Z,99.90
2023-05-05T06:04:02.797Z,99.90
2023-05-05T06:06:29.820Z,99.90
2023-05-05T06:08:56.888Z,99.90
2023-05-05T06:11:23.964Z,99.90
2023-05-05T06:13:51.033Z,99.90
2023-05-05T06:16:18.053Z,99.90
2023-05-05T06:18:45.118Z,99.90
2023-05-05T06:21:13.468Z,99.90
2023-05-05T06:23:40.570Z,99.90
2023-05-05T06:26:07.541Z,99.90
2023-05-05T06:28:34.473Z,99.90
2023-05-05T06:31:01.613Z,99.90
2023-05-05T06:33:28.677Z,99.90
2023-05-05T06:35:55.714Z,99.90
2023-05-05T06:38:22.884Z,99.90
2023-05-05T06:40:50.137Z,99.90
2023-05-05T06:43:17.948Z,99.90
2023-05-05T06:45:44.906Z,99.90
2023-05-05T06:48:12.256Z,99.90
2023-05-05T06:50:39.222Z,99.90
2023-05-05T06:53:06.184Z,99.90
2023-05-05T06:55:33.139Z,99.90
2023-05-05T06:58:00.185Z,99.90
2023-05-05T07:00:27.250Z,99.90
2023-05-05T07:02:54.328Z,99.90
2023-05-05T07:05:21.617Z,99.90
2023-05-05T07:07:56.143Z,99.90
2023-05-05T07:10:24.728Z,99.90
2023-05-05T07:12:55.028Z,99.90
2023-05-05T07:15:28.872Z,99.90
2023-05-05T07:17:57.245Z,99.90
2023-05-05T07:20:24.819Z,99.90
2023-05-05T07:22:51.951Z,99.90
2023-05-05T07:25:19.068Z,99.90
2023-05-05T07:27:46.156Z,99.90
2023-05-05T07:30:16.231Z,99.90
2023-05-05T07:32:44.595Z,99.90
2023-05-05T07:35:11.834Z,99.90
2023-05-05T07:37:38.870Z,99.90
2023-05-05T07:40:06.852Z,99.90
2023-05-05T07:42:34.277Z,99.90
2023-05-05T07:45:01.304Z,99.90
2023-05-05T07:47:28.324Z,99.90
2023-05-05T07:49:55.405Z,99.90
2023-05-05T07:52:33.183Z,99.90
2023-05-05T07:55:09.555Z,99.90
2023-05-05T07:57:36.600Z,99.90
2023-05-05T08:00:03.901Z,99.90
2023-05-05T08:02:30.842Z,99.90
2023-05-05T08:04:57.833Z,99.90
2023-05-05T08:07:24.863Z,99.90
2023-05-05T08:09:51.831Z,99.90
2023-05-05T08:12:19.545Z,99.90
2023-05-05T08:14:46.552Z,99.90
2023-05-05T08:17:13.656Z,99.90
2023-05-05T08:19:40.672Z,99.90
2023-05-05T08:22:07.778Z,99.90
2023-05-05T08:24:34.738Z,99.90
2023-05-05T08:27:02.138Z,99.90
2023-05-05T08:29:29.092Z,99.90
2023-05-05T08:31:56.423Z,99.90
2023-05-05T08:34:23.547Z,99.90
2023-05-05T08:36:51.126Z,99.90
2023-05-05T08:39:18.157Z,99.90
2023-05-05T08:41:45.147Z,99.90
2023-05-05T08:44:12.255Z,99.90
2023-05-05T08:46:40.566Z,99.90
2023-05-05T08:49:15.771Z,99.90
2023-05-05T08:51:44.602Z,99.90
2023-05-05T08:54:19.432Z,99.90
2023-05-05T08:56:50.674Z,99.90
2023-05-05T08:59:19.072Z,99.90
2023-05-05T09:01:46.297Z,99.90
2023-05-05T09:04:13.730Z,99.90
2023-05-05T09:06:41.137Z,99.90
2023-05-05T09:09:09.855Z,99.90
2023-05-05T09:11:38.496Z,99.90
2023-05-05T09:16:49.702Z,99.90
2023-05-05T09:19:16.733Z,99.90
2023-05-05T09:21:49.817Z,99.90
2023-05-05T09:24:16.937Z,99.90
2023-05-05T09:26:45.777Z,99.90
2023-05-05T09:29:20.405Z,99.90
2023-05-05T09:32:08.821Z,99.90
2023-05-05T09:34:36.747Z,99.90
2023-05-05T09:37:04.171Z,99.90
2023-05-05T09:39:31.145Z,99.90
2023-05-05T09:41:58.681Z,99.90
2023-05-05T09:44:36.669Z,99.90
2023-05-05T09:47:05.674Z,99.90
2023-05-05T09:49:39.130Z,99.90
2023-05-05T09:52:14.956Z,99.90
2023-05-05T09:54:43.441Z,99.90
2023-05-05T09:57:26.968Z,99.90
2023-05-05T09:59:59.114Z,99.90
2023-05-05T10:02:38.373Z,99.90
2023-05-05T10:05:11.337Z,99.90
2023-05-05T10:07:39.208Z,99.90
2023-05-05T10:10:13.357Z,99.90
2023-05-05T10:12:41.382Z,99.90
2023-05-05T10:15:11.238Z,99.90
2023-05-05T10:20:21.315Z,99.90
2023-05-05T10:22:53.486Z,99.90
2023-05-05T10:25:33.879Z,99.90
2023-05-05T10:28:06.526Z,99.90
2023-05-05T10:30:41.289Z,99.90
2023-05-05T10:35:57.413Z,99.90
2023-05-05T10:38:28.054Z,99.90
2023-05-05T10:40:56.688Z,99.90
2023-05-05T10:43:24.658Z,99.90
2023-05-05T10:45:52.246Z,99.90
2023-05-05T10:48:25.190Z,99.90
2023-05-05T10:50:58.908Z,99.90
2023-05-05T10:53:32.241Z,99.90
2023-05-05T10:56:13.980Z,99.90
2023-05-05T10:58:58.147Z,99.90
2023-05-05T11:01:34.320Z,99.90
2023-05-05T11:04:18.635Z,99.90
2023-05-05T11:07:11.066Z,99.90
2023-05-05T11:09:59.025Z,99.90
2023-05-05T11:12:26.153Z,99.90
2023-05-05T11:15:24.192Z,99.90
2023-05-05T11:17:51.309Z,99.90
2023-05-05T11:20:18.941Z,99.90
2023-05-05T11:23:04.626Z,99.90
2023-05-05T11:25:35.781Z,99.90
2023-05-05T11:28:08.985Z,99.90
2023-05-05T11:30:58.128Z,99.90
2023-05-05T11:33:31.712Z,99.90
2023-05-05T11:36:06.096Z,99.90
2023-05-05T11:38:36.661Z,99.70
2023-05-05T11:41:39.143Z,99.90
2023-05-05T11:44:09.182Z,98.60
2023-05-05T11:46:36.333Z,99.60
2023-05-05T11:49:03.852Z,99.90
2023-05-05T11:51:31.790Z,99.30
2023-05-05T11:53:59.330Z,99.90
2023-05-05T11:56:26.594Z,99.90
2023-05-05T11:59:11.487Z,99.30
2023-05-05T12:01:42.406Z,96.00
2023-05-05T12:04:13.589Z,98.60
2023-05-05T12:06:41.668Z,97.20
2023-05-05T12:09:22.891Z,98.40
2023-05-05T12:11:58.461Z,95.50
2023-05-05T12:14:25.933Z,96.10
2023-05-05T12:17:01.734Z,97.50
2023-05-05T12:19:33.417Z,95.60
2023-05-05T12:22:02.921Z,97.40
2023-05-05T12:24:30.611Z,96.10
2023-05-05T12:27:11.058Z,95.40
2023-05-05T12:29:38.462Z,93.90
2023-05-05T12:32:05.872Z,95.80
2023-05-05T12:34:33.281Z,96.00
2023-05-05T12:37:01.157Z,95.00
2023-05-05T12:39:37.467Z,95.10
2023-05-05T12:42:05.511Z,92.40
2023-05-05T12:44:36.661Z,93.70
2023-05-05T12:47:04.114Z,92.80
2023-05-05T12:49:34.446Z,94.30
2023-05-05T12:52:01.681Z,94.40
2023-05-05T12:54:31.637Z,94.20
2023-05-05T12:56:58.862Z,94.70
2023-05-05T12:59:26.018Z,95.20
2023-05-05T13:01:56.639Z,95.30
2023-05-05T13:04:25.883Z,95.10
2023-05-05T13:07:10.052Z,95.30
2023-05-05T13:09:37.376Z,94.40
2023-05-05T13:12:04.793Z,95.60
2023-05-05T13:14:35.381Z,95.10
2023-05-05T13:17:02.448Z,95.10
2023-05-05T13:19:29.625Z,95.00
2023-05-05T13:21:58.539Z,93.10
2023-05-05T13:24:38.180Z,92.70
2023-05-05T13:27:13.241Z,93.60
2023-05-05T13:29:41.801Z,93.60
2023-05-05T13:32:08.847Z,93.30
2023-05-05T13:34:36.015Z,92.70
2023-05-05T13:37:03.019Z,93.60
2023-05-05T13:39:30.134Z,93.70
2023-05-05T13:41:57.180Z,93.50
2023-05-05T13:44:24.427Z,93.30
2023-05-05T13:46:51.532Z,93.30
2023-05-05T13:49:18.590Z,93.00
2023-05-05T13:51:47.288Z,92.60
2023-05-05T13:54:14.460Z,92.30
2023-05-05T13:56:41.552Z,92.20
2023-05-05T13:59:09.349Z,92.10
2023-05-05T14:01:36.580Z,91.90
2023-05-05T14:04:05.613Z,91.40
2023-05-05T14:06:34.071Z,91.30
2023-05-05T14:09:01.547Z,91.20
2023-05-05T14:11:28.579Z,90.50
2023-05-05T14:13:55.657Z,91.30
2023-05-05T14:16:22.719Z,91.20
2023-05-05T14:18:49.748Z,91.10
2023-05-05T14:21:16.886Z,90.70
2023-05-05T14:23:43.943Z,90.80
2023-05-05T14:26:11.067Z,90.10
2023-05-05T14:28:38.050Z,87.10
2023-05-05T14:31:05.311Z,90.00
2023-05-05T14:33:32.388Z,89.90
2023-05-05T14:36:00.059Z,90.00
2023-05-05T14:38:27.077Z,90.00
2023-05-05T14:40:54.219Z,89.10
2023-05-05T14:43:22.156Z,88.80
2023-05-05T14:45:49.231Z,89.60
2023-05-05T14:48:16.826Z,89.20
2023-05-05T14:50:46.396Z,88.40
2023-05-05T14:53:13.438Z,88.40
2023-05-05T14:55:40.483Z,88.50
2023-05-05T14:58:07.492Z,88.20
2023-05-05T15:00:34.529Z,88.50
2023-05-05T15:03:01.746Z,88.10
2023-05-05T15:05:28.852Z,87.40
2023-05-05T15:07:56.534Z,87.80
2023-05-05T15:10:23.667Z,87.60
2023-05-05T15:12:51.495Z,87.10
2023-05-05T15:15:18.627Z,85.20
2023-05-05T15:17:45.782Z,86.00
2023-05-05T15:20:13.061Z,87.10
2023-05-05T15:22:40.109Z,86.90
2023-05-05T15:25:11.106Z,86.30
2023-05-05T15:27:42.235Z,86.40
2023-05-05T15:30:09.826Z,86.00
2023-05-05T15:32:37.015Z,86.40
2023-05-05T15:35:04.795Z,86.70
2023-05-05T15:37:31.949Z,86.30
2023-05-05T15:39:59.092Z,85.90
2023-05-05T15:42:26.328Z,85.20
2023-05-05T15:44:53.318Z,84.70
2023-05-05T15:47:20.313Z,85.10
2023-05-05T15:49:47.357Z,84.80
2023-05-05T15:52:14.446Z,85.00
2023-05-05T15:54:41.662Z,85.20
2023-05-05T15:57:08.798Z,85.00
2023-05-05T15:59:36.366Z,84.70
2023-05-05T16:02:03.504Z,85.00
2023-05-05T16:04:30.543Z,84.70
2023-05-05T16:06:58.216Z,84.90
2023-05-05T16:09:25.345Z,84.60
2023-05-05T16:11:54.439Z,84.50
2023-05-05T16:14:21.567Z,84.50
2023-05-05T16:16:48.720Z,84.30
2023-05-05T16:19:16.096Z,83.90
2023-05-05T16:21:43.136Z,84.20
2023-05-05T16:24:10.185Z,84.40
2023-05-05T16:26:37.352Z,84.60
2023-05-05T16:29:04.361Z,84.10
2023-05-05T16:31:34.059Z,84.10
2023-05-05T16:34:01.250Z,84.10
2023-05-05T16:36:28.997Z,85.20
2023-05-05T16:38:56.756Z,84.50
2023-05-05T16:41:24.200Z,84.70
2023-05-05T16:43:51.351Z,85.20
2023-05-05T16:46:18.591Z,85.20
2023-05-05T16:48:46.307Z,85.40
2023-05-05T16:51:13.327Z,85.60
2023-05-05T16:53:40.284Z,85.60
2023-05-05T16:56:07.410Z,86.00
2023-05-05T16:58:34.449Z,86.10
2023-05-05T17:01:02.942Z,86.40
2023-05-05T17:03:29.994Z,86.80
2023-05-05T17:05:57.175Z,87.20
2023-05-05T17:08:24.260Z,87.30
2023-05-05T17:10:51.301Z,87.70
2023-05-05T17:13:19.416Z,88.00
2023-05-05T17:15:46.902Z,89.00
2023-05-05T17:18:13.958Z,88.60
2023-05-05T17:20:41.125Z,89.20
2023-05-05T17:23:09.044Z,89.70
2023-05-05T17:25:36.129Z,90.00
2023-05-05T17:28:03.240Z,90.20
2023-05-05T17:30:30.252Z,90.50
2023-05-05T17:32:57.839Z,90.60
2023-05-05T17:35:24.872Z,90.80
2023-05-05T17:37:51.956Z,90.90
2023-05-05T17:40:19.023Z,91.30
2023-05-05T17:42:46.049Z,91.30
2023-05-05T17:45:13.049Z,91.50
2023-05-05T17:47:40.212Z,91.60
2023-05-05T17:50:07.679Z,91.80
2023-05-05T17:52:34.689Z,92.00
2023-05-05T17:55:01.691Z,92.20
2023-05-05T17:57:28.869Z,92.30
2023-05-05T17:59:56.037Z,92.50
2023-05-05T18:02:24.236Z,92.70
2023-05-05T18:04:51.349Z,92.90
2023-05-05T18:07:18.341Z,93.10
2023-05-05T18:09:45.433Z,93.30
2023-05-05T18:12:12.486Z,93.40
2023-05-05T18:14:39.561Z,93.70
2023-05-05T18:17:06.516Z,93.70
2023-05-05T18:19:37.075Z,93.80
2023-05-05T18:22:04.040Z,94.00
2023-05-05T18:24:32.243Z,94.20
2023-05-05T18:26:59.224Z,94.20
2023-05-05T18:29:28.413Z,94.90
2023-05-05T18:31:55.585Z,94.50
2023-05-05T18:34:22.706Z,94.70
2023-05-05T18:36:51.091Z,94.80
2023-05-05T18:39:18.147Z,95.10
2023-05-05T18:41:45.233Z,95.50
2023-05-05T18:44:12.336Z,95.30
2023-05-05T18:46:39.536Z,95.50
2023-05-05T18:49:06.665Z,95.60
2023-05-05T18:51:34.327Z,95.80
2023-05-05T18:54:01.358Z,95.90
2023-05-05T18:56:28.433Z,96.10
2023-05-05T18:58:55.784Z,96.30
2023-05-05T19:01:23.481Z,96.60
2023-05-05T19:03:50.715Z,96.70
2023-05-05T19:06:17.903Z,96.90
2023-05-05T19:08:45.832Z,97.10
2023-05-05T19:11:14.831Z,97.30
2023-05-05T19:13:42.126Z,97.50
2023-05-05T19:16:11.474Z,97.60
2023-05-05T19:18:39.240Z,97.90
2023-05-05T19:21:06.554Z,98.10
2023-05-05T19:23:33.649Z,98.20
2023-05-05T19:26:00.820Z,98.40
2023-05-05T19:28:27.836Z,98.60
2023-05-05T19:30:54.932Z,98.80
2023-05-05T19:33:23.365Z,99.00
2023-05-05T19:35:50.647Z,99.40
2023-05-05T19:38:17.709Z,99.40
2023-05-05T19:40:44.795Z,99.60
2023-05-05T19:43:11.818Z,99.80
2023-05-05T19:45:38.914Z,99.90
2023-05-05T19:48:06.516Z,99.90
2023-05-05T19:50:33.474Z,99.90
2023-05-05T19:53:00.589Z,99.90
2023-05-05T19:55:27.688Z,99.90
2023-05-05T19:57:54.855Z,99.90
2023-05-05T20:00:22.044Z,99.90
2023-05-05T20:02:49.463Z,99.90
2023-05-05T20:05:17.896Z,99.90
2023-05-05T20:07:46.974Z,99.90
2023-05-05T20:10:14.334Z,99.90
2023-05-05T20:12:48.493Z,99.90
2023-05-05T20:15:18.868Z,99.90
2023-05-05T20:17:47.776Z,99.90
2023-05-05T20:20:22.967Z,99.90
2023-05-05T20:22:50.042Z,99.90
2023-05-05T20:25:17.407Z,99.90
2023-05-05T20:27:45.572Z,99.90
2023-05-05T20:30:13.526Z,99.90
2023-05-05T20:32:41.532Z,99.90
2023-05-05T20:35:09.271Z,99.90
2023-05-05T20:37:36.274Z,99.90
2023-05-05T20:40:04.070Z,99.90
2023-05-05T20:42:31.098Z,99.90
2023-05-05T20:44:58.214Z,99.90
2023-05-05T20:47:25.560Z,99.90
2023-05-05T20:49:52.728Z,99.90
2023-05-05T20:52:20.222Z,99.90
2023-05-05T20:54:47.258Z,99.90
2023-05-05T20:57:14.319Z,99.90
2023-05-05T20:59:41.294Z,99.90
2023-05-05T21:02:08.546Z,99.90
2023-05-05T21:04:36.069Z,99.90
2023-05-05T21:07:03.092Z,99.90
2023-05-05T21:09:30.106Z,99.90
2023-05-05T21:11:57.068Z,99.90
2023-05-05T21:14:24.195Z,99.90
2023-05-05T21:16:51.300Z,99.90
2023-05-05T21:19:18.395Z,99.90
2023-05-05T21:21:45.441Z,99.90
2023-05-05T21:24:15.650Z,99.90
2023-05-05T21:26:44.399Z,99.90
2023-05-05T21:29:12.289Z,99.90
2023-05-05T21:31:39.304Z,99.90
2023-05-05T21:34:06.322Z,99.90
2023-05-05T21:36:34.215Z,99.90
2023-05-05T21:39:01.303Z,99.90
2023-05-05T21:41:28.434Z,99.90
2023-05-05T21:43:55.802Z,99.90
2023-05-05T21:46:23.109Z,99.90
2023-05-05T21:48:50.351Z,99.90
2023-05-05T21:51:19.106Z,99.90
2023-05-05T21:53:46.317Z,99.90
2023-05-05T21:56:13.359Z,99.90
2023-05-05T21:58:41.278Z,99.90
2023-05-05T22:01:08.310Z,99.90
2023-05-05T22:03:35.972Z,99.90
2023-05-05T22:06:03.318Z,99.90
2023-05-05T22:08:30.438Z,99.90
2023-05-05T22:10:57.374Z,99.90
2023-05-05T22:13:24.338Z,99.90
2023-05-05T22:15:51.519Z,99.90
2023-05-05T22:18:18.593Z,99.90
2023-05-05T22:20:46.951Z,99.90
2023-05-05T22:23:14.332Z,99.90
2023-05-05T22:25:41.447Z,99.90
2023-05-05T22:28:08.486Z,99.90
2023-05-05T22:30:35.644Z,99.90
2023-05-05T22:33:02.868Z,99.90
2023-05-05T22:35:29.864Z,99.90
2023-05-05T22:37:57.021Z,99.90
2023-05-05T22:40:24.034Z,99.90
2023-05-05T22:42:51.087Z,99.90
2023-05-05T22:45:18.140Z,99.90
2023-05-05T22:47:45.325Z,99.90
2023-05-05T22:50:14.080Z,99.90
2023-05-05T22:52:41.104Z,99.90
2023-05-05T22:55:08.723Z,99.90
2023-05-05T22:57:36.473Z,99.90
2023-05-05T23:00:05.431Z,99.90
2023-05-05T23:02:32.481Z,99.90
2023-05-05T23:04:59.514Z,99.90
2023-05-05T23:07:26.565Z,99.90
2023-05-05T23:09:53.700Z,99.90
2023-05-05T23:12:20.865Z,99.90
2023-05-05T23:14:48.611Z,99.90
2023-05-05T23:17:15.703Z,99.90
2023-05-05T23:19:42.794Z,99.90
2023-05-05T23:22:09.791Z,99.90
2023-05-05T23:24:36.849Z,99.90
2023-05-05T23:27:03.945Z,99.90
2023-05-05T23:29:31.279Z,99.90
2023-05-05T23:31:58.426Z,99.90
2023-05-05T23:34:26.253Z,99.90
2023-05-05T23:36:53.267Z,99.90
2023-05-05T23:39:20.388Z,99.90
2023-05-05T23:41:47.404Z,99.90
2023-05-05T23:44:14.415Z,99.90
2023-05-05T23:46:41.641Z,99.90
2023-05-05T23:49:08.801Z,99.90
2023-05-05T23:51:35.752Z,99.90
2023-05-05T23:54:02.797Z,99.90
2023-05-05T23:56:29.823Z,99.90
2023-05-05T23:58:56.822Z,99.90
